Time;durP1;ratioP1;P1;durP2;ratioP2;P2;SDS_P1;SDS_P2;PMS_P1;PMS_P2;Temp;Humidity;BMP_temperature;BMP_pressure;BME280_temperature;BME280_humidity;BME280_pressure;Samples;Min_cycle;Max_cycle;Signal;HPM_P1;HPM_P2
2024/01/22 00:01:04;;;;;;;311.52;211.93;;;;;;;;;;5063400;28;20020;-76
2024/01/22 00:03:29;;;;;;;276.60;197.68;;;;;;;;;;5064708;28;20032;-73
2024/01/22 00:05:55;;;;;;;294.52;213.10;;;;;;;;;;5063491;28;20428;-74
2024/01/22 00:08:20;;;;;;;377.80;251.70;;;;;;;;;;5064537;28;20156;-76
2024/01/22 00:10:45;;;;;;;304.77;203.65;;;;;;;;;;5047571;28;20107;-73
2024/01/22 00:13:11;;;;;;;229.55;154.98;;;;;;;;;;5063869;28;20107;-74
2024/01/22 00:15:36;;;;;;;276.42;183.27;;;;;;;;;;5065278;28;20435;-74
2024/01/22 00:18:02;;;;;;;245.15;159.60;;;;;;;;;;5063669;28;20020;-74
2024/01/22 00:20:27;;;;;;;180.63;125.25;;;;;;;;;;5065869;28;20024;-76
2024/01/22 00:22:52;;;;;;;182.93;123.68;;;;;;;;;;5063729;28;20052;-74
2024/01/22 00:25:18;;;;;;;180.15;119.07;;;;;;;;;;5064458;28;20034;-81
2024/01/22 00:27:43;;;;;;;149.98;106.60;;;;;;;;;;5064944;28;20438;-74
2024/01/22 00:30:10;;;;;;;119.15;84.43;;;;;;;;;;5065069;28;20024;-74
2024/01/22 00:32:36;;;;;;;116.57;79.10;;;;;;;;;;5063766;28;20039;-75
2024/01/22 00:35:01;;;;;;;153.48;117.97;;;;;;;;;;5085035;28;20044;-80
2024/01/22 00:37:26;;;;;;;128.00;100.03;;;;;;;;;;5087157;28;20031;-75
2024/01/22 00:39:55;;;;;;;188.02;148.88;;;;;;;;;;5086560;28;23406;-78
2024/01/22 00:42:21;;;;;;;171.75;132.45;;;;;;;;;;5085489;28;20323;-75
2024/01/22 00:44:46;;;;;;;201.48;156.90;;;;;;;;;;5086817;28;20044;-83
2024/01/22 00:47:11;;;;;;;139.02;102.97;;;;;;;;;;5084920;28;20405;-80
2024/01/22 00:49:37;;;;;;;177.70;129.30;;;;;;;;;;5086500;28;20025;-77
2024/01/22 00:52:02;;;;;;;141.20;101.90;;;;;;;;;;5088228;28;20112;-84
2024/01/22 00:54:27;;;;;;;167.55;118.90;;;;;;;;;;5084581;28;20104;-78
2024/01/22 00:56:55;;;;;;;190.77;131.02;;;;;;;;;;5086098;28;20024;-78
2024/01/22 00:59:21;;;;;;;194.10;127.68;;;;;;;;;;5086147;28;20064;-76
2024/01/22 01:01:46;;;;;;;246.63;160.52;;;;;;;;;;5086844;28;20117;-84
2024/01/22 01:04:11;;;;;;;220.68;150.65;;;;;;;;;;5085880;28;20118;-78
2024/01/22 01:06:37;;;;;;;206.90;153.70;;;;;;;;;;5088301;28;20028;-81
2024/01/22 01:09:02;;;;;;;163.95;116.68;;;;;;;;;;5086571;28;20030;-81
2024/01/22 01:11:27;;;;;;;191.98;133.13;;;;;;;;;;5086007;28;20403;-76
2024/01/22 01:13:53;;;;;;;162.60;119.22;;;;;;;;;;5083656;28;20031;-75
2024/01/22 01:16:18;;;;;;;144.00;108.28;;;;;;;;;;5087599;28;20461;-77
2024/01/22 01:18:43;;;;;;;179.15;125.25;;;;;;;;;;5084821;28;20074;-75
2024/01/22 01:21:09;;;;;;;158.48;114.25;;;;;;;;;;5084612;28;20044;-73
2024/01/22 01:23:34;;;;;;;146.05;112.65;;;;;;;;;;5083778;28;20030;-76
2024/01/22 01:26:00;;;;;;;122.05;94.68;;;;;;;;;;5086177;28;20031;-81
2024/01/22 01:28:25;;;;;;;105.45;80.68;;;;;;;;;;5086521;28;20043;-79
2024/01/22 01:30:51;;;;;;;107.70;80.82;;;;;;;;;;5084155;28;20039;-76
2024/01/22 01:33:16;;;;;;;125.35;103.38;;;;;;;;;;5083160;28;20120;-79
2024/01/22 01:35:43;;;;;;;104.88;82.65;;;;;;;;;;5081085;28;20047;-81
2024/01/22 01:38:08;;;;;;;89.18;66.80;;;;;;;;;;5086454;28;20114;-75
2024/01/22 01:40:34;;;;;;;92.82;71.55;;;;;;;;;;5090051;28;20103;-77
2024/01/22 01:42:59;;;;;;;99.47;69.72;;;;;;;;;;5090616;28;20024;-80
2024/01/22 01:45:24;;;;;;;73.60;59.03;;;;;;;;;;5099519;28;20509;-75
2024/01/22 01:47:50;;;;;;;84.60;62.65;;;;;;;;;;5094629;28;20015;-75
2024/01/22 01:50:19;;;;;;;88.30;69.25;;;;;;;;;;5092853;28;20031;-81
2024/01/22 01:52:45;;;;;;;96.53;74.57;;;;;;;;;;5100219;28;20411;-75
2024/01/22 01:55:10;;;;;;;94.88;71.07;;;;;;;;;;5101632;28;20020;-79
2024/01/22 01:57:38;;;;;;;91.03;69.70;;;;;;;;;;5104021;28;20338;-77
2024/01/22 02:00:05;;;;;;;104.60;75.75;;;;;;;;;;5101293;28;20123;-76
2024/01/22 02:02:30;;;;;;;106.18;74.95;;;;;;;;;;5095219;28;20396;-79
2024/01/22 02:04:55;;;;;;;148.77;101.90;;;;;;;;;;5096532;28;20036;-76
2024/01/22 02:07:21;;;;;;;134.70;96.00;;;;;;;;;;5094600;28;20032;-77
2024/01/22 02:09:50;;;;;;;115.10;82.07;;;;;;;;;;5090968;28;20832;-80
2024/01/22 02:12:16;;;;;;;104.53;74.55;;;;;;;;;;5095113;28;20124;-76
2024/01/22 02:14:42;;;;;;;128.65;91.88;;;;;;;;;;5086425;28;20031;-78
2024/01/22 02:17:07;;;;;;;138.65;95.32;;;;;;;;;;5088734;28;20032;-80
2024/01/22 02:19:32;;;;;;;141.88;96.40;;;;;;;;;;5089266;28;20069;-75
2024/01/22 02:21:58;;;;;;;182.35;123.57;;;;;;;;;;5087507;28;20029;-76
2024/01/22 02:24:23;;;;;;;183.63;125.95;;;;;;;;;;5097972;28;20036;-75
2024/01/22 02:26:48;;;;;;;165.23;117.00;;;;;;;;;;5095531;28;20020;-75
2024/01/22 02:29:14;;;;;;;142.70;103.05;;;;;;;;;;5098028;28;20130;-74
2024/01/22 02:31:39;;;;;;;118.40;84.70;;;;;;;;;;5096517;28;20023;-76
2024/01/22 02:34:04;;;;;;;141.40;103.80;;;;;;;;;;5079815;28;20028;-76
2024/01/22 02:36:30;;;;;;;133.45;92.43;;;;;;;;;;5076994;28;20847;-83
2024/01/22 02:38:55;;;;;;;104.07;72.35;;;;;;;;;;5071196;28;20475;-80
2024/01/22 02:41:20;;;;;;;57.92;46.00;;;;;;;;;;5073437;28;20024;-75
2024/01/22 02:43:46;;;;;;;52.47;39.95;;;;;;;;;;5075805;28;20036;-74
2024/01/22 02:46:11;;;;;;;46.47;36.45;;;;;;;;;;5076184;28;20122;-74
2024/01/22 02:48:36;;;;;;;60.53;47.83;;;;;;;;;;5075176;28;20104;-74
2024/01/22 02:51:07;;;;;;;76.95;58.47;;;;;;;;;;5049425;28;20078;-79
2024/01/22 02:53:32;;;;;;;75.88;62.22;;;;;;;;;;5075482;28;20078;-73
2024/01/22 02:55:57;;;;;;;72.38;57.25;;;;;;;;;;5064237;28;20507;-74
2024/01/22 02:58:23;;;;;;;69.57;55.03;;;;;;;;;;5077246;28;20428;-73
2024/01/22 03:00:48;;;;;;;75.97;55.80;;;;;;;;;;5078590;28;20020;-73
2024/01/22 03:03:13;;;;;;;74.35;55.45;;;;;;;;;;5077211;28;20029;-73
2024/01/22 03:05:40;;;;;;;77.07;60.45;;;;;;;;;;5078947;28;20035;-80
2024/01/22 03:08:06;;;;;;;128.52;88.95;;;;;;;;;;5075491;28;20338;-74
2024/01/22 03:10:31;;;;;;;250.60;190.45;;;;;;;;;;5077608;28;20473;-73
2024/01/22 03:12:56;;;;;;;161.57;132.02;;;;;;;;;;5057716;28;20035;-73
2024/01/22 03:15:22;;;;;;;115.65;98.30;;;;;;;;;;5078102;28;20464;-74
2024/01/22 03:17:47;;;;;;;104.93;84.65;;;;;;;;;;5077188;28;20534;-84
2024/01/22 03:20:13;;;;;;;102.18;89.65;;;;;;;;;;5070415;28;20406;-74
2024/01/22 03:22:39;;;;;;;85.43;73.88;;;;;;;;;;5074653;28;20035;-75
2024/01/22 03:25:04;;;;;;;85.70;74.05;;;;;;;;;;5078122;28;20372;-82
2024/01/22 03:27:29;;;;;;;54.15;45.00;;;;;;;;;;5076701;28;20027;-75
2024/01/22 03:29:55;;;;;;;69.45;56.33;;;;;;;;;;5077492;28;20016;-80
2024/01/22 03:32:20;;;;;;;120.00;76.97;;;;;;;;;;5076451;28;20051;-78
2024/01/22 03:34:45;;;;;;;95.60;65.78;;;;;;;;;;5076516;28;20028;-73
2024/01/22 03:37:11;;;;;;;82.90;60.97;;;;;;;;;;5078624;28;20032;-82
2024/01/22 03:39:36;;;;;;;62.10;44.72;;;;;;;;;;5067437;28;20312;-74
2024/01/22 03:42:02;;;;;;;60.72;43.47;;;;;;;;;;5076022;28;20016;-73
2024/01/22 03:44:28;;;;;;;80.38;56.15;;;;;;;;;;5057268;28;20144;-81
2024/01/22 03:46:53;;;;;;;76.72;56.20;;;;;;;;;;5074717;28;20032;-78
2024/01/22 03:49:18;;;;;;;83.82;63.70;;;;;;;;;;5075887;28;20024;-73
2024/01/22 03:51:44;;;;;;;198.57;153.55;;;;;;;;;;5075886;28;20445;-82
2024/01/22 03:54:09;;;;;;;223.73;167.05;;;;;;;;;;5076503;28;20383;-76
2024/01/22 03:56:34;;;;;;;131.77;89.22;;;;;;;;;;5076651;28;20032;-74
2024/01/22 03:59:00;;;;;;;214.38;167.00;;;;;;;;;;5076591;28;20115;-74
2024/01/22 04:01:25;;;;;;;154.93;117.90;;;;;;;;;;5076013;28;20059;-71
2024/01/22 04:03:51;;;;;;;131.02;98.75;;;;;;;;;;5077554;28;20391;-72
2024/01/22 04:06:16;;;;;;;114.50;84.30;;;;;;;;;;5075374;28;20054;-73
2024/01/22 04:08:42;;;;;;;116.18;93.20;;;;;;;;;;5075463;28;20111;-81
2024/01/22 04:11:07;;;;;;;135.65;108.55;;;;;;;;;;5074979;28;20024;-77
2024/01/22 04:13:33;;;;;;;96.63;73.25;;;;;;;;;;5051863;28;20086;-77
2024/01/22 04:15:58;;;;;;;106.15;82.70;;;;;;;;;;5053437;28;20069;-81
2024/01/22 04:18:23;;;;;;;138.75;114.88;;;;;;;;;;5076432;28;20101;-79
2024/01/22 04:20:49;;;;;;;117.47;92.78;;;;;;;;;;5076046;28;20028;-76
2024/01/22 04:23:14;;;;;;;165.70;126.80;;;;;;;;;;5076078;28;20071;-74
2024/01/22 04:25:39;;;;;;;67.25;57.42;;;;;;;;;;5075816;28;20024;-72
2024/01/22 04:28:05;;;;;;;115.20;102.55;;;;;;;;;;5075424;28;20028;-73
2024/01/22 04:30:30;;;;;;;70.95;57.67;;;;;;;;;;5075649;28;20063;-78
2024/01/22 04:32:55;;;;;;;94.07;69.25;;;;;;;;;;5075116;28;20059;-74
2024/01/22 04:35:21;;;;;;;100.07;66.05;;;;;;;;;;5074149;28;20024;-74
2024/01/22 04:37:46;;;;;;;95.50;65.78;;;;;;;;;;5073252;28;21200;-77
2024/01/22 04:40:12;;;;;;;99.07;69.05;;;;;;;;;;5066245;28;20109;-76
2024/01/22 04:42:39;;;;;;;84.32;61.20;;;;;;;;;;5067143;28;20031;-76
2024/01/22 04:45:05;;;;;;;67.85;52.00;;;;;;;;;;5071310;28;20033;-73
2024/01/22 04:47:31;;;;;;;70.93;50.67;;;;;;;;;;5058500;28;20016;-76
2024/01/22 04:49:56;;;;;;;58.92;43.53;;;;;;;;;;5054247;28;20613;-75
2024/01/22 04:52:21;;;;;;;42.75;32.50;;;;;;;;;;5074138;28;20024;-73
2024/01/22 04:54:47;;;;;;;43.67;33.83;;;;;;;;;;5056627;28;20032;-75
2024/01/22 04:57:13;;;;;;;63.13;45.25;;;;;;;;;;5073432;28;20031;-73
2024/01/22 04:59:38;;;;;;;77.78;53.70;;;;;;;;;;5075569;28;20051;-73
2024/01/22 05:02:04;;;;;;;61.80;42.88;;;;;;;;;;5072944;28;20020;-72
2024/01/22 05:04:29;;;;;;;49.80;35.80;;;;;;;;;;5075151;28;20049;-73
2024/01/22 05:06:54;;;;;;;69.57;49.65;;;;;;;;;;5068577;28;20094;-73
2024/01/22 05:09:20;;;;;;;160.57;103.60;;;;;;;;;;5072559;28;20099;-72
2024/01/22 05:11:45;;;;;;;196.98;117.93;;;;;;;;;;5068429;28;20067;-79
2024/01/22 05:14:10;;;;;;;170.30;112.40;;;;;;;;;;5050721;28;20480;-74
2024/01/22 05:16:37;;;;;;;186.32;123.75;;;;;;;;;;5079422;28;20450;-75
2024/01/22 05:19:02;;;;;;;172.80;113.88;;;;;;;;;;5075652;28;20031;-82
2024/01/22 05:21:27;;;;;;;126.10;87.55;;;;;;;;;;5065507;28;20028;-73
2024/01/22 05:23:53;;;;;;;107.35;76.43;;;;;;;;;;5067928;28;20029;-74
2024/01/22 05:26:18;;;;;;;158.73;101.15;;;;;;;;;;5064247;28;20032;-77
2024/01/22 05:28:44;;;;;;;147.93;102.43;;;;;;;;;;5049029;28;20328;-75
2024/01/22 05:31:09;;;;;;;134.50;97.95;;;;;;;;;;5064108;28;20490;-80
2024/01/22 05:33:34;;;;;;;140.35;110.32;;;;;;;;;;5078994;28;20454;-76
2024/01/22 05:36:00;;;;;;;125.70;97.15;;;;;;;;;;5083826;27;20123;-83
2024/01/22 05:38:25;;;;;;;223.63;173.23;;;;;;;;;;5086063;28;20038;-78
2024/01/22 05:40:50;;;;;;;107.70;86.20;;;;;;;;;;5086981;27;20426;-82
2024/01/22 05:43:16;;;;;;;76.38;58.30;;;;;;;;;;5090380;28;20050;-74
2024/01/22 05:45:41;;;;;;;82.07;60.03;;;;;;;;;;5093904;28;20296;-75
2024/01/22 05:48:07;;;;;;;74.78;57.28;;;;;;;;;;5087870;28;20051;-79
2024/01/22 05:50:32;;;;;;;90.18;71.82;;;;;;;;;;5091478;28;20081;-74
2024/01/22 05:52:58;;;;;;;139.95;112.15;;;;;;;;;;5098374;28;20024;-78
2024/01/22 05:55:23;;;;;;;172.70;123.38;;;;;;;;;;5099267;28;20773;-76
2024/01/22 05:57:49;;;;;;;179.13;128.85;;;;;;;;;;5086619;28;20832;-74
2024/01/22 06:00:14;;;;;;;188.05;133.75;;;;;;;;;;5096004;27;20085;-76
2024/01/22 06:02:40;;;;;;;210.52;151.80;;;;;;;;;;5099693;28;20734;-74
2024/01/22 06:05:06;;;;;;;256.90;191.32;;;;;;;;;;5101132;28;20134;-71
2024/01/22 06:07:32;;;;;;;331.52;251.20;;;;;;;;;;5103085;28;20102;-75
2024/01/22 06:09:57;;;;;;;224.32;84.88;;;;;;;;;;5087018;28;20070;-74
2024/01/22 06:12:22;;;;;;;416.33;293.67;;;;;;;;;;5083392;28;20027;-73
2024/01/22 06:14:48;;;;;;;462.65;337.35;;;;;;;;;;5081248;28;20060;-77
2024/01/22 06:17:13;;;;;;;444.27;321.13;;;;;;;;;;5079836;28;20032;-74
2024/01/22 06:19:38;;;;;;;216.25;77.45;;;;;;;;;;5092972;28;20084;-78
2024/01/22 06:22:04;;;;;;;389.30;282.15;;;;;;;;;;5088228;28;20522;-77
2024/01/22 06:24:29;;;;;;;328.00;247.10;;;;;;;;;;5087288;28;20463;-77
2024/01/22 06:26:54;;;;;;;263.52;193.60;;;;;;;;;;5084365;28;20024;-78
2024/01/22 06:29:20;;;;;;;359.05;268.60;;;;;;;;;;5083322;28;20082;-77
2024/01/22 06:31:45;;;;;;;342.58;251.13;;;;;;;;;;5083318;28;20122;-74
2024/01/22 06:34:11;;;;;;;240.38;179.40;;;;;;;;;;5062083;28;20067;-73
2024/01/22 06:36:37;;;;;;;235.15;186.68;;;;;;;;;;5059004;28;20063;-72
2024/01/22 06:39:02;;;;;;;373.98;278.63;;;;;;;;;;5071064;28;20056;-74
2024/01/22 06:41:28;;;;;;;450.98;372.42;;;;;;;;;;5069388;28;20344;-74
2024/01/22 06:43:53;;;;;;;294.17;234.00;;;;;;;;;;5067932;28;20390;-74
2024/01/22 06:46:43;;;;;;;216.77;169.05;;;;;;;;;;5061786;28;20028;-76
2024/01/22 06:49:08;;;;;;;199.98;148.40;;;;;;;;;;5065204;28;20463;-76
2024/01/22 06:51:34;;;;;;;192.13;144.10;;;;;;;;;;5065202;28;20050;-76
2024/01/22 06:53:59;;;;;;;180.85;139.82;;;;;;;;;;5069392;28;20056;-76
2024/01/22 06:56:24;;;;;;;204.27;165.40;;;;;;;;;;5075401;28;20048;-75
2024/01/22 06:58:50;;;;;;;192.88;152.52;;;;;;;;;;5073254;28;20037;-76
2024/01/22 07:01:15;;;;;;;143.85;121.85;;;;;;;;;;5073108;28;20073;-76
2024/01/22 07:03:41;;;;;;;200.93;179.32;;;;;;;;;;5055770;28;20021;-77
2024/01/22 07:06:06;;;;;;;144.60;120.45;;;;;;;;;;5075747;28;20041;-76
2024/01/22 07:08:31;;;;;;;151.55;124.47;;;;;;;;;;5070596;28;20092;-78
2024/01/22 07:10:58;;;;;;;207.93;156.60;;;;;;;;;;5062017;28;20035;-78
2024/01/22 07:13:23;;;;;;;185.18;145.27;;;;;;;;;;5071024;28;20021;-76
2024/01/22 07:15:48;;;;;;;235.18;186.98;;;;;;;;;;5074138;28;20427;-77
2024/01/22 07:18:14;;;;;;;220.32;177.63;;;;;;;;;;5076950;28;20090;-77
2024/01/22 07:20:40;;;;;;;201.77;167.48;;;;;;;;;;5076211;28;20035;-78
2024/01/22 07:23:05;;;;;;;218.40;185.35;;;;;;;;;;5077979;28;20027;-78
2024/01/22 07:25:34;;;;;;;244.23;204.93;;;;;;;;;;5071373;28;20863;-78
2024/01/22 07:27:59;;;;;;;333.48;265.05;;;;;;;;;;5075977;28;20043;-78
2024/01/22 07:30:25;;;;;;;251.73;212.70;;;;;;;;;;5073214;28;20032;-77
2024/01/22 07:32:50;;;;;;;221.85;182.13;;;;;;;;;;5073041;28;20074;-76
2024/01/22 07:35:15;;;;;;;246.95;202.18;;;;;;;;;;5076518;28;20036;-77
2024/01/22 07:37:42;;;;;;;324.10;257.60;;;;;;;;;;5057462;28;20033;-76
2024/01/22 07:40:09;;;;;;;283.67;220.70;;;;;;;;;;5073660;28;20028;-75
2024/01/22 07:42:35;;;;;;;297.25;233.10;;;;;;;;;;5075420;28;20056;-78
2024/01/22 07:45:01;;;;;;;297.83;236.80;;;;;;;;;;5076675;28;20032;-75
2024/01/22 07:47:27;;;;;;;240.35;182.95;;;;;;;;;;5077116;28;20123;-76
2024/01/22 07:49:52;;;;;;;183.90;145.32;;;;;;;;;;5075995;28;20028;-77
2024/01/22 07:52:18;;;;;;;171.23;135.77;;;;;;;;;;5073583;28;20650;-75
2024/01/22 07:54:43;;;;;;;134.52;112.47;;;;;;;;;;5075401;28;20432;-75
2024/01/22 07:57:10;;;;;;;109.93;89.82;;;;;;;;;;5074942;28;20031;-77
2024/01/22 07:59:38;;;;;;;142.60;114.55;;;;;;;;;;5075600;28;20029;-79
2024/01/22 08:02:04;;;;;;;663.05;465.65;;;;;;;;;;5074065;28;20032;-75
2024/01/22 08:04:30;;;;;;;349.08;261.92;;;;;;;;;;5077662;28;20363;-75
2024/01/22 08:06:55;;;;;;;332.05;283.58;;;;;;;;;;5075288;28;20350;-76
2024/01/22 08:09:20;;;;;;;329.63;275.92;;;;;;;;;;5077664;28;20034;-75
2024/01/22 08:11:47;;;;;;;228.75;197.98;;;;;;;;;;5076689;28;20043;-76
2024/01/22 08:14:13;;;;;;;201.55;165.65;;;;;;;;;;5073914;28;20142;-75
2024/01/22 08:16:38;;;;;;;192.07;149.77;;;;;;;;;;5075793;28;20447;-74
2024/01/22 08:19:04;;;;;;;173.70;139.73;;;;;;;;;;5072990;28;20347;-75
2024/01/22 08:21:29;;;;;;;149.77;122.25;;;;;;;;;;5075439;28;20028;-79
2024/01/22 08:23:55;;;;;;;181.55;134.45;;;;;;;;;;5072718;28;22429;-77
2024/01/22 08:26:20;;;;;;;151.18;114.53;;;;;;;;;;5072612;28;20032;-78
2024/01/22 08:28:45;;;;;;;155.68;121.07;;;;;;;;;;5075554;28;20052;-79
2024/01/22 08:31:11;;;;;;;115.95;88.50;;;;;;;;;;5075087;28;20035;-78
2024/01/22 08:33:36;;;;;;;107.03;85.07;;;;;;;;;;5055685;28;20103;-74
2024/01/22 08:36:02;;;;;;;162.57;115.28;;;;;;;;;;5050307;28;20801;-76
2024/01/22 08:38:27;;;;;;;106.45;75.90;;;;;;;;;;5053826;28;20029;-74
2024/01/22 08:40:52;;;;;;;74.25;56.40;;;;;;;;;;5052401;28;20028;-74
2024/01/22 08:43:18;;;;;;;53.50;44.85;;;;;;;;;;5045187;28;20033;-74
2024/01/22 08:45:43;;;;;;;67.38;50.92;;;;;;;;;;5045708;28;20111;-77
2024/01/22 08:48:09;;;;;;;103.68;71.90;;;;;;;;;;5053175;28;20039;-77
2024/01/22 08:50:34;;;;;;;54.08;42.72;;;;;;;;;;5051253;28;20041;-77
2024/01/22 08:52:59;;;;;;;67.45;59.22;;;;;;;;;;5053224;28;20107;-78
2024/01/22 08:55:25;;;;;;;98.57;78.40;;;;;;;;;;5051790;28;20036;-77
2024/01/22 08:57:53;;;;;;;90.35;66.20;;;;;;;;;;5057012;28;20040;-76
2024/01/22 09:00:20;;;;;;;91.43;61.17;;;;;;;;;;5052241;28;20032;-76
2024/01/22 09:02:45;;;;;;;126.13;84.07;;;;;;;;;;5053606;28;20440;-75
2024/01/22 09:05:11;;;;;;;67.45;49.28;;;;;;;;;;5054992;28;20025;-75
2024/01/22 09:07:36;;;;;;;63.60;50.20;;;;;;;;;;5052851;28;20459;-76
2024/01/22 09:10:06;;;;;;;55.75;42.70;;;;;;;;;;5052830;28;20031;-76
2024/01/22 09:12:32;;;;;;;108.18;82.53;;;;;;;;;;5051975;28;20020;-76
2024/01/22 09:14:58;;;;;;;55.75;45.17;;;;;;;;;;5052218;28;20063;-75
2024/01/22 09:17:24;;;;;;;54.03;44.08;;;;;;;;;;5050554;28;20503;-75
2024/01/22 09:19:49;;;;;;;61.53;50.00;;;;;;;;;;5050918;28;20037;-76
2024/01/22 09:22:15;;;;;;;78.18;68.05;;;;;;;;;;5050137;28;20112;-77
2024/01/22 09:24:40;;;;;;;76.68;65.15;;;;;;;;;;5051544;28;20852;-76
2024/01/22 09:27:06;;;;;;;60.97;50.53;;;;;;;;;;5051407;28;20082;-74
2024/01/22 09:29:31;;;;;;;62.15;53.28;;;;;;;;;;5054499;28;20100;-75
2024/01/22 09:31:56;;;;;;;46.55;40.33;;;;;;;;;;5053010;28;20531;-76
2024/01/22 09:34:22;;;;;;;90.53;72.93;;;;;;;;;;5054611;28;20024;-74
2024/01/22 09:36:47;;;;;;;104.03;90.40;;;;;;;;;;5050746;28;20059;-77
2024/01/22 09:39:12;;;;;;;96.05;74.20;;;;;;;;;;5051105;28;20039;-74
2024/01/22 09:41:38;;;;;;;51.75;45.13;;;;;;;;;;5053893;28;20078;-77
2024/01/22 09:44:04;;;;;;;49.83;43.63;;;;;;;;;;5053287;28;20032;-75
2024/01/22 09:46:29;;;;;;;80.07;62.83;;;;;;;;;;5052971;28;20349;-76
2024/01/22 09:48:55;;;;;;;117.45;102.07;;;;;;;;;;5051790;28;20032;-76
2024/01/22 09:51:20;;;;;;;75.47;66.55;;;;;;;;;;5053449;28;20029;-75
2024/01/22 09:53:46;;;;;;;46.40;40.00;;;;;;;;;;5049588;28;20033;-74
2024/01/22 09:56:14;;;;;;;45.88;40.88;;;;;;;;;;5050271;28;20624;-77
2024/01/22 09:58:43;;;;;;;37.10;33.13;;;;;;;;;;5053238;28;20335;-75
2024/01/22 10:01:10;;;;;;;39.15;34.45;;;;;;;;;;5052984;28;20047;-76
2024/01/22 10:03:36;;;;;;;55.55;48.53;;;;;;;;;;5059617;28;20032;-75
2024/01/22 10:06:02;;;;;;;74.00;63.55;;;;;;;;;;5060077;28;20062;-75
2024/01/22 10:08:27;;;;;;;99.47;80.70;;;;;;;;;;5061151;28;20068;-76
2024/01/22 10:10:52;;;;;;;103.30;82.28;;;;;;;;;;5041956;28;21338;-75
2024/01/22 10:13:18;;;;;;;78.13;61.92;;;;;;;;;;5064910;28;20046;-74
2024/01/22 10:15:44;;;;;;;55.55;45.35;;;;;;;;;;5064115;28;20083;-75
2024/01/22 10:18:16;;;;;;;67.93;60.08;;;;;;;;;;5053921;28;20024;-75
2024/01/22 10:20:43;;;;;;;75.10;60.03;;;;;;;;;;5052848;28;20058;-75
2024/01/22 10:23:09;;;;;;;141.73;108.47;;;;;;;;;;5057900;28;20039;-76
2024/01/22 10:25:34;;;;;;;90.40;68.07;;;;;;;;;;5063069;28;20036;-75
2024/01/22 10:28:09;;;;;;;92.38;74.03;;;;;;;;;;5054666;28;20093;-75
2024/01/22 10:30:36;;;;;;;87.75;72.95;;;;;;;;;;5054913;28;20474;-75
2024/01/22 10:33:15;;;;;;;63.47;54.10;;;;;;;;;;5068193;28;20063;-75
2024/01/22 10:35:42;;;;;;;89.47;66.57;;;;;;;;;;5080207;28;20775;-75
2024/01/22 10:38:11;;;;;;;83.75;62.95;;;;;;;;;;5076911;28;20111;-76
2024/01/22 10:40:37;;;;;;;116.15;81.57;;;;;;;;;;5076329;28;20444;-77
2024/01/22 10:43:23;;;;;;;102.13;71.35;;;;;;;;;;5079020;28;20032;-76
2024/01/22 10:45:50;;;;;;;91.47;69.20;;;;;;;;;;5075808;28;20069;-75
2024/01/22 10:48:16;;;;;;;52.88;43.20;;;;;;;;;;5075713;28;20016;-76
2024/01/22 10:50:42;;;;;;;44.58;39.08;;;;;;;;;;5055657;28;20326;-75
2024/01/22 10:53:08;;;;;;;50.63;40.95;;;;;;;;;;5074791;28;20036;-77
2024/01/22 10:55:33;;;;;;;60.60;50.78;;;;;;;;;;5075479;28;20028;-75
2024/01/22 10:58:00;;;;;;;64.85;53.72;;;;;;;;;;5079993;28;20100;-75
2024/01/22 11:00:27;;;;;;;78.70;66.25;;;;;;;;;;5076101;28;20031;-76
2024/01/22 11:02:54;;;;;;;80.22;65.55;;;;;;;;;;5079215;28;20027;-75
2024/01/22 11:05:20;;;;;;;65.03;54.67;;;;;;;;;;5076946;28;20301;-75
2024/01/22 11:07:47;;;;;;;56.63;46.75;;;;;;;;;;5058608;28;20930;-76
2024/01/22 11:10:13;;;;;;;44.65;39.75;;;;;;;;;;5078394;28;20058;-76
2024/01/22 11:12:41;;;;;;;51.47;43.70;;;;;;;;;;5078534;28;20437;-75
2024/01/22 11:15:06;;;;;;;55.67;45.47;;;;;;;;;;5077158;28;20035;-74
2024/01/22 11:17:32;;;;;;;46.58;41.58;;;;;;;;;;5072508;28;20037;-75
2024/01/22 11:20:16;;;;;;;79.50;70.60;;;;;;;;;;5077629;28;20521;-77
2024/01/22 11:22:42;;;;;;;77.57;65.80;;;;;;;;;;5076848;28;20020;-74
2024/01/22 11:25:13;;;;;;;46.67;40.25;;;;;;;;;;5078470;28;20092;-77
2024/01/22 11:27:43;;;;;;;51.72;45.45;;;;;;;;;;5059260;28;20028;-77
2024/01/22 11:30:20;;;;;;;43.25;37.08;;;;;;;;;;5075797;28;20020;-76
2024/01/22 11:32:46;;;;;;;46.60;41.53;;;;;;;;;;5078286;28;20442;-78
2024/01/22 11:35:11;;;;;;;61.28;52.17;;;;;;;;;;5074279;28;20024;-76
2024/01/22 11:37:37;;;;;;;52.47;46.67;;;;;;;;;;5073691;28;20024;-76
2024/01/22 11:40:12;;;;;;;45.45;40.42;;;;;;;;;;5076783;28;20112;-75
2024/01/22 11:42:37;;;;;;;41.63;36.10;;;;;;;;;;5073486;28;20023;-76
2024/01/22 11:45:21;;;;;;;48.70;39.67;;;;;;;;;;5077606;28;20046;-76
2024/01/22 11:47:47;;;;;;;41.35;36.22;;;;;;;;;;5073944;28;20414;-76
2024/01/22 11:50:12;;;;;;;42.38;36.58;;;;;;;;;;5074902;28;20040;-76
2024/01/22 11:52:38;;;;;;;48.85;41.42;;;;;;;;;;5074884;28;20113;-77
2024/01/22 11:55:04;;;;;;;39.83;35.45;;;;;;;;;;5076340;28;20028;-75
2024/01/22 11:57:37;;;;;;;37.40;32.03;;;;;;;;;;5073807;28;20363;-75
2024/01/22 12:00:09;;;;;;;55.15;47.40;;;;;;;;;;5077386;28;20092;-77
2024/01/22 12:02:35;;;;;;;38.53;34.33;;;;;;;;;;5076148;28;20028;-75
2024/01/22 12:05:06;;;;;;;44.28;38.13;;;;;;;;;;5072927;28;20039;-76
2024/01/22 12:07:34;;;;;;;47.97;42.08;;;;;;;;;;5078675;28;20032;-76
2024/01/22 12:10:00;;;;;;;44.30;37.80;;;;;;;;;;5074577;28;20059;-76
2024/01/22 12:12:26;;;;;;;50.38;44.88;;;;;;;;;;5076607;28;20054;-78
2024/01/22 12:14:55;;;;;;;51.67;44.33;;;;;;;;;;5072298;28;20043;-77
2024/01/22 12:17:21;;;;;;;74.30;54.38;;;;;;;;;;5071981;28;20032;-76
2024/01/22 12:19:48;;;;;;;51.17;43.08;;;;;;;;;;5074322;28;20444;-76
2024/01/22 12:22:13;;;;;;;41.55;37.05;;;;;;;;;;5075208;28;20031;-77
2024/01/22 12:24:39;;;;;;;38.65;33.15;;;;;;;;;;5074803;28;20346;-76
2024/01/22 12:27:04;;;;;;;43.72;35.50;;;;;;;;;;5076778;28;20063;-78
2024/01/22 12:29:29;;;;;;;39.05;34.42;;;;;;;;;;5074252;28;20024;-76
2024/01/22 12:32:02;;;;;;;41.58;37.03;;;;;;;;;;5074915;28;20043;-76
2024/01/22 12:34:27;;;;;;;29.38;26.30;;;;;;;;;;5075807;28;20160;-75
2024/01/22 12:36:53;;;;;;;35.30;31.42;;;;;;;;;;5065407;28;20036;-76
2024/01/22 12:39:19;;;;;;;44.58;39.88;;;;;;;;;;5074649;28;20079;-75
2024/01/22 12:41:44;;;;;;;43.90;37.53;;;;;;;;;;5073861;28;20023;-75
2024/01/22 12:44:13;;;;;;;47.42;41.67;;;;;;;;;;5074977;28;20020;-75
2024/01/22 12:46:38;;;;;;;43.95;38.33;;;;;;;;;;5074297;28;20085;-75
2024/01/22 12:49:03;;;;;;;51.65;41.35;;;;;;;;;;5076634;28;20421;-76
2024/01/22 12:51:29;;;;;;;54.28;45.05;;;;;;;;;;5056895;28;20032;-76
2024/01/22 12:53:54;;;;;;;45.17;38.15;;;;;;;;;;5074983;28;20028;-77
2024/01/22 12:56:19;;;;;;;45.45;40.30;;;;;;;;;;5072883;28;20497;-76
2024/01/22 12:58:45;;;;;;;48.05;41.33;;;;;;;;;;5074871;28;20362;-76
2024/01/22 13:01:10;;;;;;;41.30;36.72;;;;;;;;;;5076503;28;20069;-78
2024/01/22 13:03:36;;;;;;;32.88;29.27;;;;;;;;;;5075491;28;20063;-76
2024/01/22 13:06:02;;;;;;;37.95;32.13;;;;;;;;;;5075558;28;20032;-75
2024/01/22 13:08:27;;;;;;;53.53;46.03;;;;;;;;;;5073016;28;20347;-77
2024/01/22 13:10:55;;;;;;;44.78;38.25;;;;;;;;;;5073972;28;20343;-76
2024/01/22 13:13:21;;;;;;;42.03;35.78;;;;;;;;;;5074798;28;20051;-77
2024/01/22 13:15:46;;;;;;;40.15;34.05;;;;;;;;;;5071099;28;20373;-77
2024/01/22 13:18:12;;;;;;;39.33;32.90;;;;;;;;;;5076278;28;20363;-75
2024/01/22 13:20:37;;;;;;;47.60;41.95;;;;;;;;;;5075576;28;20024;-77
2024/01/22 13:23:03;;;;;;;48.47;43.17;;;;;;;;;;5074700;28;20032;-77
2024/01/22 13:25:28;;;;;;;39.20;33.72;;;;;;;;;;5066600;28;20024;-76
2024/01/22 13:27:55;;;;;;;45.42;40.15;;;;;;;;;;5073634;28;20035;-77
2024/01/22 13:30:20;;;;;;;44.05;39.25;;;;;;;;;;5074527;28;20491;-82
2024/01/22 13:32:46;;;;;;;45.05;39.40;;;;;;;;;;5073046;28;20142;-78
2024/01/22 13:35:12;;;;;;;52.72;44.75;;;;;;;;;;5074468;28;20363;-75
2024/01/22 13:37:38;;;;;;;42.50;36.10;;;;;;;;;;5079036;28;20028;-75
2024/01/22 13:40:06;;;;;;;39.65;34.47;;;;;;;;;;5057263;28;20335;-75
2024/01/22 13:42:32;;;;;;;52.42;45.63;;;;;;;;;;5076066;28;20020;-76
2024/01/22 13:44:58;;;;;;;51.40;44.88;;;;;;;;;;5079242;28;20515;-75
2024/01/22 13:47:23;;;;;;;44.92;37.08;;;;;;;;;;5079309;28;20035;-78
2024/01/22 13:49:49;;;;;;;75.38;61.55;;;;;;;;;;5077830;28;20028;-75
2024/01/22 13:52:14;;;;;;;94.57;84.00;;;;;;;;;;5079236;28;20073;-78
2024/01/22 13:54:40;;;;;;;78.25;66.28;;;;;;;;;;5075876;28;20028;-77
2024/01/22 13:57:05;;;;;;;45.63;38.20;;;;;;;;;;5077095;28;20472;-77
2024/01/22 13:59:31;;;;;;;42.28;36.35;;;;;;;;;;5049287;28;20057;-72